Time;durP1;ratioP1;P1;durP2;ratioP2;P2;SDS_P1;SDS_P2;PMS_P1;PMS_P2;Temp;Humidity;BMP_temperature;BMP_pressure;BME280_temperature;BME280_humidity;BME280_pressure;Samples;Min_cycle;Max_cycle;Signal;HPM_P1;HPM_P2
2023/06/10 00:00:53;;;;;;;26.08;21.80;;;15.50;99.90;;;;;;5031716;28;20029;-82
2023/06/10 00:03:19;;;;;;;25.52;22.67;;;15.40;99.90;;;;;;5031608;28;20382;-81
2023/06/10 00:05:44;;;;;;;29.73;23.23;;;15.30;99.90;;;;;;5032933;28;20029;-80
2023/06/10 00:08:11;;;;;;;26.70;21.63;;;15.30;99.90;;;;;;5032758;28;20022;-80
2023/06/10 00:10:38;;;;;;;27.40;21.70;;;15.20;99.90;;;;;;5031402;28;20128;-80
2023/06/10 00:13:07;;;;;;;28.00;23.23;;;15.20;99.90;;;;;;5030895;28;20025;-81
2023/06/10 00:15:33;;;;;;;28.33;23.38;;;15.20;99.90;;;;;;5031595;28;20385;-81
2023/06/10 00:17:58;;;;;;;29.08;23.98;;;15.20;99.90;;;;;;5031585;28;20066;-81
2023/06/10 00:20:25;;;;;;;27.30;22.20;;;15.20;99.90;;;;;;5031309;28;20014;-81
2023/06/10 00:22:52;;;;;;;29.42;23.13;;;15.20;99.90;;;;;;5031274;28;20021;-80
2023/06/10 00:25:18;;;;;;;30.00;24.30;;;15.20;99.90;;;;;;5031307;28;20021;-81
2023/06/10 00:27:43;;;;;;;31.42;25.67;;;15.20;99.90;;;;;;5032415;28;20032;-81
2023/06/10 00:30:10;;;;;;;30.33;24.55;;;15.20;99.90;;;;;;5032429;28;20462;-81
2023/06/10 00:32:36;;;;;;;30.27;24.38;;;15.20;99.90;;;;;;5030996;28;20048;-80
2023/06/10 00:35:03;;;;;;;30.30;24.25;;;15.30;99.90;;;;;;5032774;28;20432;-81
2023/06/10 00:37:29;;;;;;;29.15;25.98;;;15.30;99.90;;;;;;5031161;28;20029;-81
2023/06/10 00:39:55;;;;;;;30.20;23.73;;;15.40;99.90;;;;;;5031011;28;20108;-81
2023/06/10 00:42:22;;;;;;;28.88;24.27;;;15.40;99.90;;;;;;5030990;28;20114;-81
2023/06/10 00:44:48;;;;;;;28.88;22.80;;;15.40;99.90;;;;;;5032181;28;20018;-81
2023/06/10 00:47:14;;;;;;;30.20;24.92;;;15.40;99.90;;;;;;5030930;28;20020;-81
2023/06/10 00:49:40;;;;;;;33.60;25.67;;;15.40;99.90;;;;;;5030769;28;20114;-82
2023/06/10 00:52:07;;;;;;;34.33;25.58;;;15.40;99.90;;;;;;5030641;28;20595;-81
2023/06/10 00:54:33;;;;;;;29.83;23.95;;;15.40;99.90;;;;;;5031921;28;20033;-81
2023/06/10 00:57:01;;;;;;;26.73;23.60;;;15.40;99.90;;;;;;5031152;28;20383;-81
2023/06/10 00:59:28;;;;;;;30.88;24.65;;;15.40;99.90;;;;;;5031980;28;20114;-82
2023/06/10 01:01:55;;;;;;;26.33;22.02;;;15.40;99.90;;;;;;5031809;28;20022;-81
2023/06/10 01:04:21;;;;;;;28.42;22.90;;;15.40;99.90;;;;;;5031845;28;20105;-81
2023/06/10 01:07:09;;;;;;;27.33;22.65;;;15.50;99.90;;;;;;5030713;28;20071;-81
2023/06/10 01:09:43;;;;;;;26.73;22.13;;;15.50;99.90;;;;;;5032045;28;20058;-81
2023/06/10 01:12:37;;;;;;;24.60;21.13;;;15.50;99.90;;;;;;5031469;28;20064;-82
2023/06/10 01:15:04;;;;;;;20.67;18.58;;;15.50;99.90;;;;;;5030515;28;20040;-82
2023/06/10 01:17:30;;;;;;;21.80;17.48;;;15.50;99.90;;;;;;5030441;28;20118;-81
2023/06/10 01:19:59;;;;;;;20.50;17.25;;;15.50;99.90;;;;;;5031795;28;20026;-82
2023/06/10 01:22:28;;;;;;;21.10;17.33;;;15.50;99.90;;;;;;5031761;28;20394;-81
2023/06/10 01:24:58;;;;;;;18.35;15.00;;;15.60;99.90;;;;;;5029303;28;20025;-81
2023/06/10 01:27:29;;;;;;;17.55;15.50;;;15.60;99.90;;;;;;5031505;28;20070;-81
2023/06/10 01:30:11;;;;;;;15.80;14.07;;;15.60;99.90;;;;;;5030201;28;20021;-81
2023/06/10 01:32:50;;;;;;;19.80;14.57;;;15.70;99.90;;;;;;5013785;28;20048;-81
2023/06/10 01:35:16;;;;;;;16.35;13.52;;;15.70;99.90;;;;;;5030213;28;20026;-82
2023/06/10 01:37:45;;;;;;;15.90;14.05;;;15.70;99.90;;;;;;5030458;28;20430;-82
2023/06/10 01:40:13;;;;;;;17.75;15.32;;;15.70;99.90;;;;;;5031458;28;20028;-81
2023/06/10 01:42:39;;;;;;;18.02;16.10;;;15.70;99.90;;;;;;5030223;28;20025;-81
2023/06/10 01:45:05;;;;;;;19.90;15.18;;;15.70;99.90;;;;;;5030161;28;20028;-82
2023/06/10 01:47:31;;;;;;;18.33;15.20;;;15.70;99.90;;;;;;5029866;28;20394;-81
2023/06/10 01:49:56;;;;;;;22.50;16.80;;;15.70;99.90;;;;;;5030841;28;20097;-81
2023/06/10 01:52:22;;;;;;;18.33;16.10;;;15.70;99.90;;;;;;5029810;28;20025;-82
2023/06/10 01:54:47;;;;;;;21.38;17.40;;;15.70;99.90;;;;;;5031159;28;20427;-81
2023/06/10 01:57:13;;;;;;;26.48;18.83;;;15.60;99.90;;;;;;5031202;28;20022;-81
2023/06/10 01:59:39;;;;;;;28.52;19.52;;;15.60;99.90;;;;;;5031017;28;20021;-81
2023/06/10 02:02:05;;;;;;;28.10;20.42;;;15.60;99.90;;;;;;5030107;28;20482;-81
2023/06/10 02:04:31;;;;;;;27.45;21.05;;;15.60;99.90;;;;;;5029820;28;20022;-81
2023/06/10 02:06:56;;;;;;;28.02;19.77;;;15.70;99.90;;;;;;5029743;28;20527;-81
2023/06/10 02:09:22;;;;;;;27.73;21.13;;;15.60;99.90;;;;;;5029657;28;20029;-81
2023/06/10 02:11:48;;;;;;;25.15;19.40;;;15.60;99.90;;;;;;5029577;28;20033;-81
2023/06/10 02:14:14;;;;;;;21.95;19.10;;;15.60;99.90;;;;;;5029518;28;20028;-81
2023/06/10 02:16:40;;;;;;;23.67;18.10;;;15.60;99.90;;;;;;5029418;28;20083;-82
2023/06/10 02:19:06;;;;;;;26.92;18.67;;;15.60;99.90;;;;;;5029470;28;20026;-82
2023/06/10 02:21:34;;;;;;;22.77;17.42;;;15.60;99.90;;;;;;5030706;28;20029;-81
2023/06/10 02:24:00;;;;;;;22.15;17.10;;;15.60;99.90;;;;;;5030118;28;20135;-82
2023/06/10 02:26:25;;;;;;;21.10;17.05;;;15.60;99.90;;;;;;5030889;28;20070;-81
2023/06/10 02:28:51;;;;;;;20.55;16.40;;;15.60;99.90;;;;;;5030876;28;20046;-81
2023/06/10 02:31:18;;;;;;;18.55;16.35;;;15.60;99.90;;;;;;5030533;28;20502;-81
2023/06/10 02:33:44;;;;;;;19.55;16.58;;;15.60;99.90;;;;;;5029283;28;20551;-82
2023/06/10 02:36:13;;;;;;;19.23;15.50;;;15.50;99.90;;;;;;5029093;28;20025;-81
2023/06/10 02:38:40;;;;;;;17.63;15.73;;;15.50;99.90;;;;;;5030600;28;20468;-82
2023/06/10 02:41:05;;;;;;;18.38;15.45;;;15.50;99.90;;;;;;5030375;28;20531;-82
2023/06/10 02:43:31;;;;;;;17.25;14.43;;;15.50;99.90;;;;;;5029351;28;20022;-82
2023/06/10 02:45:56;;;;;;;16.27;13.80;;;15.50;99.90;;;;;;5029293;28;20026;-82
2023/06/10 02:48:24;;;;;;;15.52;13.50;;;15.50;99.90;;;;;;5030353;28;20053;-82
2023/06/10 02:50:49;;;;;;;14.30;12.82;;;15.50;99.90;;;;;;5028704;28;20064;-81
2023/06/10 02:53:15;;;;;;;15.18;13.57;;;15.50;99.90;;;;;;5028758;28;20467;-82
2023/06/10 02:55:41;;;;;;;19.88;14.35;;;15.50;99.90;;;;;;5028981;28;20048;-81
2023/06/10 02:58:07;;;;;;;16.58;12.98;;;15.50;99.90;;;;;;5029095;28;20022;-80
2023/06/10 03:00:33;;;;;;;12.48;11.18;;;15.50;99.90;;;;;;5029262;28;20078;-82
2023/06/10 03:03:02;;;;;;;15.32;12.43;;;15.50;99.90;;;;;;5030483;28;20022;-82
2023/06/10 03:05:32;;;;;;;18.67;12.90;;;15.50;99.90;;;;;;5029332;28;20443;-82
2023/06/10 03:07:57;;;;;;;13.05;11.80;;;15.60;99.90;;;;;;5028952;28;20038;-82
2023/06/10 03:10:23;;;;;;;13.02;11.73;;;15.60;99.90;;;;;;5028893;28;20143;-81
2023/06/10 03:12:48;;;;;;;15.35;11.48;;;15.70;99.90;;;;;;5028835;28;20026;-82
2023/06/10 03:15:15;;;;;;;16.48;11.40;;;15.70;99.90;;;;;;5030177;28;20056;-82
2023/06/10 03:17:41;;;;;;;13.98;12.45;;;15.70;99.90;;;;;;5028717;28;20044;-82
2023/06/10 03:20:10;;;;;;;13.20;11.20;;;15.70;99.90;;;;;;5030293;28;20137;-81
2023/06/10 03:22:35;;;;;;;16.80;13.05;;;15.70;99.90;;;;;;5029020;28;20021;-81
2023/06/10 03:25:01;;;;;;;15.48;12.20;;;15.70;99.90;;;;;;5029044;28;20032;-82
2023/06/10 03:27:28;;;;;;;13.82;11.45;;;15.80;99.90;;;;;;5028536;28;20025;-81
2023/06/10 03:29:54;;;;;;;15.80;13.68;;;15.80;99.90;;;;;;5028698;28;20378;-81
2023/06/10 03:32:20;;;;;;;16.30;13.63;;;15.70;99.90;;;;;;5029864;28;20033;-82
2023/06/10 03:34:47;;;;;;;16.77;13.85;;;15.80;99.90;;;;;;5029777;28;20033;-81
2023/06/10 03:37:13;;;;;;;18.35;14.00;;;15.80;99.90;;;;;;5029048;28;20478;-82
2023/06/10 03:39:38;;;;;;;19.65;14.32;;;15.70;99.90;;;;;;5028811;28;20026;-82
2023/06/10 03:42:04;;;;;;;19.35;14.82;;;15.70;99.90;;;;;;5029729;28;20527;-82
2023/06/10 03:44:30;;;;;;;16.65;13.60;;;15.70;99.90;;;;;;5028395;28;20394;-82
2023/06/10 03:46:56;;;;;;;17.05;13.63;;;15.70;99.90;;;;;;5029652;28;20032;-82
2023/06/10 03:49:26;;;;;;;18.77;14.35;;;15.70;99.90;;;;;;5031338;28;20021;-83
2023/06/10 03:51:52;;;;;;;21.55;14.93;;;15.60;99.90;;;;;;5031525;28;20046;-81
2023/06/10 03:54:17;;;;;;;15.32;13.65;;;15.70;99.90;;;;;;5032145;28;20025;-82
2023/06/10 03:56:43;;;;;;;21.70;15.60;;;15.60;99.90;;;;;;5031899;28;20029;-82
2023/06/10 03:59:08;;;;;;;22.08;15.25;;;15.60;99.90;;;;;;5031836;28;20018;-82
2023/06/10 04:01:37;;;;;;;18.63;16.50;;;15.60;99.90;;;;;;5031660;28;20017;-82
2023/06/10 04:04:02;;;;;;;25.42;16.33;;;15.60;99.90;;;;;;5031529;28;20021;-80
2023/06/10 04:06:28;;;;;;;20.38;15.57;;;15.60;99.90;;;;;;5031514;28;20024;-81
2023/06/10 04:08:56;;;;;;;17.58;14.52;;;15.70;99.90;;;;;;5031422;28;20486;-82
2023/06/10 04:11:23;;;;;;;15.90;13.15;;;15.70;99.90;;;;;;5031340;28;20624;-81
2023/06/10 04:13:49;;;;;;;14.50;13.07;;;15.70;99.90;;;;;;5032677;28;20064;-82
2023/06/10 04:16:15;;;;;;;20.00;14.75;;;15.70;99.90;;;;;;5032981;28;20045;-82
2023/06/10 04:18:41;;;;;;;14.57;12.38;;;15.70;99.90;;;;;;5031778;28;20029;-81
2023/06/10 04:21:08;;;;;;;15.23;13.25;;;15.70;99.90;;;;;;5031415;28;20045;-81
2023/06/10 04:23:35;;;;;;;17.90;12.70;;;15.70;99.90;;;;;;5031268;28;20033;-82
2023/06/10 04:26:00;;;;;;;12.85;11.48;;;15.80;99.90;;;;;;5031300;28;20032;-81
2023/06/10 04:28:26;;;;;;;14.90;12.38;;;15.80;99.90;;;;;;5032454;28;20021;-82
2023/06/10 04:30:52;;;;;;;12.75;11.30;;;15.90;99.90;;;;;;5032321;28;20098;-82
2023/06/10 04:33:18;;;;;;;13.43;11.15;;;15.90;99.90;;;;;;5031021;28;20057;-82
2023/06/10 04:35:44;;;;;;;14.75;11.40;;;16.00;99.90;;;;;;5032239;28;20072;-82
2023/06/10 04:38:10;;;;;;;15.20;10.32;;;16.00;99.90;;;;;;5032342;28;20021;-81
2023/06/10 04:40:35;;;;;;;12.00;10.57;;;16.10;99.90;;;;;;5032404;28;20112;-82
2023/06/10 04:43:01;;;;;;;11.55;10.43;;;16.10;99.90;;;;;;5032058;28;20092;-82
2023/06/10 04:45:26;;;;;;;13.15;10.60;;;16.10;99.90;;;;;;5032180;28;20363;-82
2023/06/10 04:47:52;;;;;;;12.73;10.70;;;16.20;99.90;;;;;;5030706;28;20070;-82
2023/06/10 04:50:17;;;;;;;11.52;10.07;;;16.20;99.90;;;;;;5020571;28;20384;-81
2023/06/10 04:52:44;;;;;;;13.27;10.18;;;16.20;99.90;;;;;;5018253;28;20033;-81
2023/06/10 04:55:10;;;;;;;11.73;9.98;;;16.10;99.90;;;;;;5020674;28;20030;-81
2023/06/10 04:57:36;;;;;;;12.90;10.05;;;16.20;99.90;;;;;;5019303;28;20090;-81
2023/06/10 05:00:05;;;;;;;12.98;11.07;;;16.20;99.90;;;;;;5031811;28;20057;-81
2023/06/10 05:02:31;;;;;;;11.77;10.57;;;16.20;99.90;;;;;;5031578;28;20026;-81
2023/06/10 05:04:57;;;;;;;12.43;9.68;;;16.20;99.90;;;;;;5030239;28;20037;-81
2023/06/10 05:07:23;;;;;;;10.20;9.13;;;16.20;99.90;;;;;;5028642;28;20094;-79
2023/06/10 05:09:49;;;;;;;11.20;9.82;;;16.20;99.90;;;;;;5017636;28;20064;-83
2023/06/10 05:12:14;;;;;;;13.27;9.32;;;16.20;99.90;;;;;;5010708;28;20106;-83
2023/06/10 05:14:41;;;;;;;9.82;8.70;;;16.20;99.90;;;;;;5023163;28;20032;-82
2023/06/10 05:17:06;;;;;;;11.52;10.40;;;16.20;99.90;;;;;;5031038;28;20044;-82
2023/06/10 05:19:32;;;;;;;11.82;9.07;;;16.20;99.90;;;;;;5019703;27;20459;-82
2023/06/10 05:21:58;;;;;;;11.35;9.73;;;16.20;99.90;;;;;;5018813;28;20021;-82
2023/06/10 05:24:23;;;;;;;12.23;10.00;;;16.20;99.90;;;;;;5018557;28;20067;-83
2023/06/10 05:26:49;;;;;;;11.23;9.68;;;16.10;99.90;;;;;;5018642;28;20013;-84
2023/06/10 05:29:15;;;;;;;11.02;9.45;;;16.10;99.90;;;;;;5015905;28;20021;-83
2023/06/10 05:31:41;;;;;;;14.25;10.95;;;16.00;99.90;;;;;;5017297;28;20401;-83
2023/06/10 05:34:07;;;;;;;11.32;10.00;;;16.00;99.90;;;;;;5011188;28;20026;-83
2023/06/10 05:36:32;;;;;;;13.35;10.75;;;15.90;99.90;;;;;;5009101;28;20532;-83
2023/06/10 05:38:58;;;;;;;17.58;11.55;;;15.80;99.90;;;;;;5018814;28;20033;-83
2023/06/10 05:41:25;;;;;;;13.30;12.00;;;15.80;99.90;;;;;;5024348;28;20025;-83
2023/06/10 05:43:50;;;;;;;14.20;10.45;;;15.80;99.90;;;;;;5031103;28;20022;-85
2023/06/10 05:46:16;;;;;;;14.65;11.82;;;15.70;99.90;;;;;;5029005;28;20542;-81
2023/06/10 05:48:42;;;;;;;14.70;11.95;;;15.80;99.90;;;;;;5031250;28;20470;-82
2023/06/10 05:51:07;;;;;;;13.98;11.18;;;15.70;99.90;;;;;;5029710;28;20053;-83
2023/06/10 05:53:33;;;;;;;14.98;12.02;;;15.80;99.90;;;;;;5031099;28;20033;-81
2023/06/10 05:55:58;;;;;;;20.65;12.30;;;15.80;99.90;;;;;;5029902;28;20032;-84
2023/06/10 05:58:24;;;;;;;14.43;12.93;;;15.70;99.90;;;;;;5029805;28;20017;-80
2023/06/10 06:00:50;;;;;;;16.70;13.45;;;15.70;99.90;;;;;;5024002;28;20078;-83
2023/06/10 06:03:15;;;;;;;16.70;12.45;;;15.70;99.90;;;;;;5021711;28;20048;-82
2023/06/10 06:05:41;;;;;;;14.32;12.43;;;15.70;99.90;;;;;;5028117;28;20029;-82
2023/06/10 06:08:10;;;;;;;14.38;12.93;;;15.60;99.90;;;;;;5028229;28;20040;-84
2023/06/10 06:10:35;;;;;;;13.43;12.02;;;15.60;99.90;;;;;;5026239;28;20034;-82
2023/06/10 06:13:01;;;;;;;12.88;11.43;;;15.60;99.90;;;;;;5020581;28;20018;-83
2023/06/10 06:15:27;;;;;;;14.07;12.60;;;15.60;99.90;;;;;;5019071;28;20034;-82
2023/06/10 06:17:53;;;;;;;16.75;13.27;;;15.60;99.90;;;;;;5014142;28;20058;-83
2023/06/10 06:20:22;;;;;;;14.55;12.98;;;15.60;99.90;;;;;;5008717;28;20415;-82
2023/06/10 06:22:48;;;;;;;14.57;12.35;;;15.60;99.90;;;;;;5008399;28;20121;-83
2023/06/10 06:25:14;;;;;;;12.80;11.55;;;15.60;99.90;;;;;;5008694;28;20084;-82
2023/06/10 06:27:40;;;;;;;12.60;11.30;;;15.60;99.90;;;;;;5009628;28;20034;-81
2023/06/10 06:30:06;;;;;;;13.05;11.15;;;15.60;99.90;;;;;;5007436;28;20038;-81
2023/06/10 06:32:32;;;;;;;12.82;11.20;;;15.60;99.90;;;;;;5013422;28;20502;-82
2023/06/10 06:34:58;;;;;;;13.07;11.18;;;15.60;99.90;;;;;;5009972;28;20042;-83
2023/06/10 06:37:25;;;;;;;12.88;11.48;;;15.60;99.90;;;;;;5008994;28;20562;-83
2023/06/10 06:39:54;;;;;;;13.18;11.00;;;15.60;99.90;;;;;;5015478;28;20513;-83
2023/06/10 06:42:20;;;;;;;14.38;12.15;;;15.70;99.90;;;;;;5014806;28;20604;-83
2023/06/10 06:44:46;;;;;;;11.88;10.73;;;15.70;99.90;;;;;;5016498;28;20075;-83
2023/06/10 06:47:12;;;;;;;10.95;9.85;;;15.70;99.90;;;;;;5016933;28;20417;-83
2023/06/10 06:49:38;;;;;;;12.45;10.48;;;15.70;99.90;;;;;;5015714;28;20022;-83
2023/06/10 06:52:04;;;;;;;11.85;10.65;;;15.70;99.90;;;;;;5018974;28;20076;-83
2023/06/10 06:54:33;;;;;;;13.05;10.00;;;15.80;99.90;;;;;;5010470;28;20054;-83
2023/06/10 06:56:58;;;;;;;12.40;11.10;;;15.80;99.90;;;;;;5011970;28;20054;-82
2023/06/10 06:59:25;;;;;;;14.00;10.88;;;15.90;99.90;;;;;;5017418;28;20516;-83
2023/06/10 07:01:51;;;;;;;13.63;10.15;;;15.90;99.90;;;;;;5016882;28;20026;-82
2023/06/10 07:04:16;;;;;;;11.80;10.23;;;16.00;99.90;;;;;;5020047;28;20056;-82
2023/06/10 07:06:42;;;;;;;12.75;9.82;;;16.00;99.90;;;;;;5022709;28;20395;-82
2023/06/10 07:09:11;;;;;;;11.02;9.82;;;16.00;99.90;;;;;;5017677;28;20391;-82
2023/06/10 07:11:36;;;;;;;11.85;9.27;;;16.10;99.90;;;;;;5012409;28;20050;-82
2023/06/10 07:14:02;;;;;;;10.73;8.48;;;16.10;99.90;;;;;;5008721;28;20022;-82
2023/06/10 07:16:28;;;;;;;11.80;9.18;;;16.10;99.90;;;;;;5010050;28;20045;-82
2023/06/10 07:18:53;;;;;;;11.73;9.65;;;16.10;99.90;;;;;;5008636;28;20018;-83
2023/06/10 07:21:19;;;;;;;9.50;8.60;;;16.10;99.90;;;;;;5008744;28;20116;-82
2023/06/10 07:23:45;;;;;;;12.13;9.10;;;16.10;99.90;;;;;;5010776;28;20018;-82
2023/06/10 07:26:13;;;;;;;10.68;9.57;;;16.20;99.90;;;;;;5016041;28;20055;-83
2023/06/10 07:28:40;;;;;;;13.10;10.10;;;16.20;99.90;;;;;;5074797;27;20488;-83
2023/06/10 07:31:05;;;;;;;10.15;9.15;;;16.30;99.90;;;;;;5136221;27;20027;-83
2023/06/10 07:33:31;;;;;;;12.25;10.30;;;16.40;99.90;;;;;;5136595;27;20023;-84
2023/06/10 07:35:56;;;;;;;10.75;9.60;;;16.50;99.90;;;;;;5136450;27;20054;-83
2023/06/10 07:38:22;;;;;;;11.52;10.38;;;16.60;99.90;;;;;;5136619;27;20467;-82
2023/06/10 07:40:48;;;;;;;10.15;9.15;;;16.70;99.90;;;;;;5136121;27;20118;-82
2023/06/10 07:43:13;;;;;;;11.00;10.00;;;16.80;99.90;;;;;;5134455;27;20019;-83
2023/06/10 07:45:42;;;;;;;11.00;10.00;;;16.90;99.90;;;;;;5134108;27;20046;-83
2023/06/10 07:48:09;;;;;;;10.40;9.07;;;17.10;99.90;;;;;;5133922;27;20037;-84
2023/06/10 07:50:34;;;;;;;10.55;9.48;;;17.20;99.90;;;;;;5133675;27;20051;-83
2023/06/10 07:53:01;;;;;;;10.80;9.63;;;17.30;99.90;;;;;;5135154;27;20027;-83
2023/06/10 07:55:26;;;;;;;11.23;9.45;;;17.40;99.90;;;;;;5133828;27;20076;-83
2023/06/10 07:57:53;;;;;;;10.48;9.48;;;17.40;99.90;;;;;;5136253;27;20023;-84
2023/06/10 08:00:19;;;;;;;11.23;9.93;;;17.50;99.90;;;;;;5022842;27;20079;-84
2023/06/10 08:02:44;;;;;;;11.45;9.48;;;17.50;99.90;;;;;;5011553;28;20026;-84
2023/06/10 08:05:11;;;;;;;10.20;9.23;;;17.70;99.90;;;;;;5012813;28;20030;-84
2023/06/10 08:07:36;;;;;;;13.52;9.35;;;17.70;99.90;;;;;;5012745;28;20483;-84
2023/06/10 08:10:03;;;;;;;11.52;9.00;;;17.80;99.90;;;;;;5011439;28;20025;-84
2023/06/10 08:12:29;;;;;;;9.98;9.07;;;17.80;99.90;;;;;;5011295;28;20029;-84
2023/06/10 08:14:55;;;;;;;10.98;9.52;;;17.80;99.90;;;;;;5027013;27;20145;-84
2023/06/10 08:17:21;;;;;;;10.50;9.50;;;18.00;99.90;;;;;;5032337;28;20108;-84
2023/06/10 08:19:47;;;;;;;10.70;9.70;;;18.10;99.90;;;;;;5030903;28;20025;-84
2023/06/10 08:22:13;;;;;;;9.98;8.98;;;18.10;99.90;;;;;;5030928;28;20036;-84
2023/06/10 08:24:38;;;;;;;12.07;9.30;;;18.20;99.90;;;;;;5031971;28;20033;-83
2023/06/10 08:27:05;;;;;;;10.38;9.35;;;18.10;99.90;;;;;;5030872;28;20021;-83
2023/06/10 08:29:34;;;;;;;10.65;9.60;;;18.20;99.90;;;;;;5030635;28;20034;-85
2023/06/10 08:32:00;;;;;;;9.60;8.57;;;18.20;99.90;;;;;;5031960;28;20044;-84
2023/06/10 08:34:26;;;;;;;10.07;8.35;;;18.20;99.90;;;;;;5027134;28;20097;-84
2023/06/10 08:36:53;;;;;;;9.85;8.57;;;18.40;99.90;;;;;;5026938;27;20104;-85
2023/06/10 08:39:19;;;;;;;10.88;9.27;;;18.40;99.90;;;;;;5032068;28;20055;-84
2023/06/10 08:42:11;;;;;;;10.13;9.13;;;18.50;99.90;;;;;;5031910;28;20022;-84
2023/06/10 08:44:40;;;;;;;10.18;7.82;;;18.60;99.90;;;;;;5030987;28;20031;-84
2023/06/10 08:47:15;;;;;;;8.65;7.85;;;18.50;99.90;;;;;;5027943;28;20018;-84
2023/06/10 08:49:44;;;;;;;10.23;8.32;;;18.60;99.90;;;;;;5011047;28;20040;-85
2023/06/10 08:52:18;;;;;;;9.80;7.90;;;18.70;99.90;;;;;;5011951;28;20105;-84
2023/06/10 08:54:58;;;;;;;9.02;7.95;;;19.00;99.90;;;;;;5010691;28;20026;-84
2023/06/10 08:57:26;;;;;;;7.07;6.47;;;19.20;99.90;;;;;;5010722;28;20475;-84
2023/06/10 08:59:54;;;;;;;7.38;6.78;;;19.40;99.90;;;;;;5012177;28;20064;-85
2023/06/10 09:02:20;;;;;;;7.78;6.32;;;19.60;99.90;;;;;;5010406;28;20049;-85
2023/06/10 09:04:47;;;;;;;6.70;5.97;;;19.60;99.90;;;;;;5010497;28;20483;-85
2023/06/10 09:07:15;;;;;;;6.90;6.28;;;19.70;99.90;;;;;;5010879;28;20018;-85
2023/06/10 09:09:43;;;;;;;6.82;6.22;;;19.70;99.90;;;;;;5010528;28;20068;-86
2023/06/10 09:12:09;;;;;;;9.30;7.25;;;19.70;99.90;;;;;;5011911;28;20038;-84
2023/06/10 09:14:35;;;;;;;7.32;6.60;;;19.80;99.90;;;;;;5010525;28;20390;-84
2023/06/10 09:17:01;;;;;;;6.97;6.28;;;19.60;99.90;;;;;;5010953;28;20090;-83
2023/06/10 09:19:28;;;;;;;7.80;7.10;;;19.40;99.90;;;;;;5010628;28;20383;-80
2023/06/10 09:21:53;;;;;;;15.90;7.00;;;19.50;99.90;;;;;;5011693;28;20018;-81
2023/06/10 09:24:21;;;;;;;7.70;6.78;;;19.50;99.90;;;;;;5011531;28;20022;-82
2023/06/10 09:26:47;;;;;;;8.07;7.38;;;19.40;99.90;;;;;;5010207;28;20022;-82
2023/06/10 09:29:13;;;;;;;8.20;7.30;;;19.50;99.90;;;;;;5028512;28;20032;-82
2023/06/10 09:31:40;;;;;;;7.60;6.78;;;19.30;99.90;;;;;;5029327;28;20137;-84
2023/06/10 09:34:14;;;;;;;10.18;6.53;;;19.00;99.90;;;;;;5028974;28;20452;-81
2023/06/10 09:36:41;;;;;;;8.15;7.10;;;19.00;99.90;;;;;;5014943;28;20042;-83
2023/06/10 09:39:17;;;;;;;7.55;6.78;;;19.10;99.90;;;;;;5029206;28;20034;-83
2023/06/10 09:41:44;;;;;;;7.43;6.72;;;19.10;99.90;;;;;;5022501;27;20045;-82
2023/06/10 09:44:17;;;;;;;6.85;6.15;;;18.90;99.90;;;;;;5028786;28;20076;-82
2023/06/10 09:46:46;;;;;;;7.00;6.40;;;18.80;99.90;;;;;;5024183;27;20036;-83
2023/06/10 09:49:12;;;;;;;6.35;5.80;;;18.80;99.90;;;;;;5028540;28;20022;-83
2023/06/10 09:51:48;;;;;;;6.43;5.72;;;18.80;99.90;;;;;;5026789;28;20491;-83
2023/06/10 09:54:14;;;;;;;6.63;6.03;;;18.80;99.90;;;;;;5019780;28;20013;-83
2023/06/10 09:56:42;;;;;;;7.22;6.63;;;18.90;99.90;;;;;;5030896;28;20514;-82
2023/06/10 09:59:08;;;;;;;6.00;5.40;;;18.90;99.90;;;;;;5026636;28;20025;-82
2023/06/10 10:01:34;;;;;;;6.15;5.60;;;19.10;99.90;;;;;;5029281;28;20115;-82
2023/06/10 10:04:01;;;;;;;5.30;4.90;;;19.00;99.90;;;;;;5027223;28;20094;-83
2023/06/10 10:06:27;;;;;;;5.97;5.28;;;19.00;99.90;;;;;;5027415;28;20024;-82
2023/06/10 10:08:53;;;;;;;6.22;5.40;;;18.90;99.90;;;;;;5027063;28;20482;-82
2023/06/10 10:11:23;;;;;;;6.30;5.03;;;18.90;99.90;;;;;;5024729;28;20037;-82
2023/06/10 10:13:50;;;;;;;6.35;5.50;;;19.00;99.90;;;;;;5026713;28;20017;-82
2023/06/10 10:16:40;;;;;;;5.90;5.32;;;19.20;99.90;;;;;;5027241;28;20048;-82
2023/06/10 10:19:27;;;;;;;6.50;5.50;;;19.10;99.90;;;;;;5028125;28;20085;-82
2023/06/10 10:21:56;;;;;;;5.90;5.22;;;19.20;99.90;;;;;;5028406;28;20028;-82
2023/06/10 10:24:30;;;;;;;6.97;5.20;;;19.20;99.90;;;;;;5028014;28;20057;-82
2023/06/10 10:27:00;;;;;;;6.43;5.82;;;19.30;99.90;;;;;;5015608;28;20431;-82
2023/06/10 10:29:33;;;;;;;6.90;5.78;;;19.40;99.90;;;;;;5029756;28;20014;-83
2023/06/10 10:32:00;;;;;;;5.88;5.38;;;19.50;99.90;;;;;;5029718;28;20073;-82
2023/06/10 10:34:51;;;;;;;5.50;5.03;;;19.60;99.90;;;;;;5029640;28;20030;-82
2023/06/10 10:37:18;;;;;;;7.90;6.28;;;19.60;99.90;;;;;;5031298;28;20106;-83
2023/06/10 10:39:45;;;;;;;6.68;5.95;;;19.70;99.90;;;;;;5028227;28;20031;-82
2023/06/10 10:42:12;;;;;;;5.93;5.43;;;19.70;99.90;;;;;;5028449;28;20114;-82
2023/06/10 10:44:38;;;;;;;6.07;5.47;;;19.80;99.90;;;;;;5028375;28;20545;-83
2023/06/10 10:47:08;;;;;;;6.82;5.68;;;19.80;99.90;;;;;;5029969;28;20383;-82
2023/06/10 10:49:36;;;;;;;6.57;5.15;;;19.90;99.90;;;;;;5028729;28;20373;-82
2023/06/10 10:52:05;;;;;;;6.43;5.53;;;19.90;99.90;;;;;;5028341;28;20102;-83
2023/06/10 10:54:32;;;;;;;6.13;5.63;;;19.80;99.90;;;;;;5029607;28;20387;-82
2023/06/10 10:57:28;;;;;;;6.63;6.03;;;19.90;99.90;;;;;;5031185;28;20052;-82
2023/06/10 11:00:04;;;;;;;6.25;5.68;;;19.90;99.90;;;;;;5041678;28;20068;-83
2023/06/10 11:02:43;;;;;;;8.27;5.55;;;20.00;99.90;;;;;;5031754;28;20021;-83
2023/06/10 11:05:14;;;;;;;6.25;5.72;;;20.10;99.90;;;;;;5033116;28;20026;-83
2023/06/10 11:07:39;;;;;;;7.05;6.03;;;20.20;99.90;;;;;;5031801;28;20051;-83
2023/06/10 11:10:13;;;;;;;5.90;5.03;;;20.00;99.90;;;;;;5033108;28;20030;-83
2023/06/10 11:12:45;;;;;;;5.35;4.95;;;20.00;99.90;;;;;;5032041;28;20029;-83
2023/06/10 11:15:11;;;;;;;;;;;20.10;99.90;;;;;;5031549;28;20022;-83
2023/06/10 11:17:37;;;;;;;7.22;6.28;;;20.20;99.90;;;;;;5032802;28;20343;-83
2023/06/10 11:20:03;;;;;;;7.75;5.57;;;20.20;99.90;;;;;;5032008;28;20026;-83
2023/06/10 11:22:28;;;;;;;8.93;5.43;;;20.60;99.90;;;;;;5033355;28;20061;-82
2023/06/10 11:24:54;;;;;;;9.13;6.07;;;20.80;99.90;;;;;;5030265;28;20120;-87
2023/06/10 11:27:26;;;;;;;7.97;5.50;;;21.00;99.90;;;;;;5012323;28;20483;-81
2023/06/10 11:29:55;;;;;;;;;;;21.30;99.90;;;;;;5012691;28;20543;-83
2023/06/10 11:32:20;;;;;;;6.65;6.05;;;21.60;99.90;;;;;;5013138;28;19917;-83
2023/06/10 11:34:53;;;;;;;6.55;4.95;;;21.80;99.90;;;;;;5011996;28;20082;-82
2023/06/10 11:37:18;;;;;;;6.22;4.70;;;21.90;99.90;;;;;;5013279;28;20022;-82
2023/06/10 11:39:44;;;;;;;6.43;5.07;;;21.80;99.90;;;;;;5013162;28;20109;-82
2023/06/10 11:42:11;;;;;;;6.18;5.57;;;21.60;98.80;;;;;;5013085;28;20463;-82
2023/06/10 11:44:37;;;;;;;6.57;5.97;;;21.80;99.00;;;;;;5011837;28;20055;-82
2023/06/10 11:47:03;;;;;;;5.70;5.20;;;21.60;96.60;;;;;;5013061;28;20022;-82
2023/06/10 11:49:29;;;;;;;5.55;5.05;;;21.70;95.40;;;;;;5011727;28;20026;-82
2023/06/10 11:51:56;;;;;;;7.30;6.00;;;21.70;97.10;;;;;;5013028;28;20479;-81
2023/06/10 11:54:22;;;;;;;6.47;5.90;;;21.60;96.30;;;;;;5011787;28;20151;-82
2023/06/10 11:56:48;;;;;;;6.53;5.95;;;21.70;96.70;;;;;;5013052;28;20441;-81
2023/06/10 11:59:14;;;;;;;6.03;5.22;;;21.80;96.60;;;;;;5012998;28;20063;-83
2023/06/10 12:01:44;;;;;;;6.53;5.35;;;21.60;92.70;;;;;;5011808;28;20054;-82
2023/06/10 12:04:15;;;;;;;6.55;5.60;;;21.40;96.40;;;;;;5010650;28;20107;-83
2023/06/10 12:06:51;;;;;;;5.68;5.13;;;21.30;97.70;;;;;;5031036;28;20026;-83
2023/06/10 12:09:27;;;;;;;5.95;5.50;;;21.40;94.10;;;;;;5029182;28;20026;-82
2023/06/10 12:11:59;;;;;;;5.80;5.32;;;21.80;98.30;;;;;;5031138;28;20037;-82
2023/06/10 12:14:56;;;;;;;5.72;5.32;;;22.00;95.90;;;;;;5031299;28;20022;-82
2023/06/10 12:17:32;;;;;;;6.00;5.43;;;22.20;94.20;;;;;;5030088;28;20070;-82
2023/06/10 12:19:59;;;;;;;6.65;5.32;;;22.10;88.40;;;;;;5033286;28;20022;-82
2023/06/10 12:22:26;;;;;;;5.47;4.93;;;22.50;91.50;;;;;;5032082;28;20029;-81
2023/06/10 12:25:03;;;;;;;7.07;5.22;;;22.60;89.40;;;;;;5031294;28;20021;-82
2023/06/10 12:27:30;;;;;;;5.97;5.40;;;22.60;88.10;;;;;;5031075;28;20036;-82
2023/06/10 12:30:04;;;;;;;5.70;5.28;;;22.50;89.50;;;;;;5031196;28;20110;-83
2023/06/10 12:32:36;;;;;;;5.40;4.90;;;22.50;91.60;;;;;;5030956;28;20041;-82
2023/06/10 12:35:04;;;;;;;;;;;22.30;90.60;;;;;;5032709;28;20018;-82
2023/06/10 12:37:29;;;;;;;5.93;5.43;;;22.10;88.40;;;;;;5030883;28;20384;-83